Time;durP1;ratioP1;P1;durP2;ratioP2;P2;SDS_P1;SDS_P2;PMS_P1;PMS_P2;Temp;Humidity;BMP_temperature;BMP_pressure;BME280_temperature;BME280_humidity;BME280_pressure;Samples;Min_cycle;Max_cycle;Signal;HPM_P1;HPM_P2
2023/08/25 00:00:34;;;;;;;19.13;8.70;;;;;;;24.02;65.70;100364.48;125002;1105;104195;-76
2023/08/25 00:03:25;;;;;;;19.13;8.70;;;;;;;24.01;65.79;100369.88;125078;1104;104750;-76
2023/08/25 00:05:57;;;;;;;20.67;9.03;;;;;;;23.93;66.59;100363.81;123964;1105;101885;-76
2023/08/25 00:08:28;;;;;;;22.13;8.67;;;;;;;23.85;66.56;100361.30;124052;1105;104208;-75
2023/08/25 00:11:02;;;;;;;18.60;8.80;;;;;;;23.81;66.99;100364.91;124024;1105;104242;-76
2023/08/25 00:13:35;;;;;;;17.50;8.53;;;;;;;23.74;66.85;100369.53;124081;1105;101856;-75
2023/08/25 00:16:05;;;;;;;;;;;;;;;23.66;66.91;100352.73;124063;1105;104239;-75
2023/08/25 00:18:37;;;;;;;18.90;8.20;;;;;;;23.65;67.18;100357.23;123992;1105;104179;-75
2023/08/25 00:21:09;;;;;;;18.47;8.60;;;;;;;23.64;67.06;100358.13;124060;1105;104258;-77
2023/08/25 00:23:40;;;;;;;20.10;8.77;;;;;;;23.62;67.36;100353.70;124072;1105;104211;-76
2023/08/25 00:26:11;;;;;;;17.10;8.77;;;;;;;23.62;67.38;100342.99;124075;1105;102011;-76
2023/08/25 00:28:43;;;;;;;17.43;8.67;;;;;;;23.63;67.66;100342.09;124065;1105;101991;-77
2023/08/25 00:31:14;;;;;;;21.37;8.80;;;;;;;23.69;67.51;100350.00;124011;1105;104297;-76
2023/08/25 00:33:51;;;;;;;18.53;8.67;;;;;;;23.71;67.62;100349.97;124157;1105;101846;-77
2023/08/25 00:36:22;;;;;;;18.10;8.73;;;;;;;23.65;67.54;100357.23;124317;1105;104814;-77
2023/08/25 00:38:54;;;;;;;18.17;9.47;;;;;;;23.58;67.63;100357.38;124149;1105;104195;-77
2023/08/25 00:41:26;;;;;;;17.10;8.57;;;;;;;23.48;67.91;100351.30;124211;1105;104269;-77
2023/08/25 00:43:57;;;;;;;19.40;8.50;;;;;;;23.38;68.50;100353.29;124160;1105;104357;-76
2023/08/25 00:46:28;;;;;;;16.80;8.80;;;;;;;23.33;68.54;100348.02;124114;1105;104265;-76
2023/08/25 00:49:00;;;;;;;17.13;8.43;;;;;;;23.31;68.50;100347.18;124101;1105;104236;-76
2023/08/25 00:51:32;;;;;;;20.17;8.73;;;;;;;23.28;68.36;100357.05;123942;1105;104275;-76
2023/08/25 00:54:04;;;;;;;17.40;8.80;;;;;;;23.21;68.09;100352.73;124042;1105;101961;-76
2023/08/25 00:56:36;;;;;;;20.00;8.70;;;;;;;23.18;68.92;100355.47;123974;1105;102099;-75
2023/08/25 00:59:08;;;;;;;17.27;8.37;;;;;;;23.15;68.93;100353.72;124063;1105;101913;-76
2023/08/25 01:01:39;;;;;;;20.27;9.17;;;;;;;23.09;69.25;100349.39;123916;1105;104201;-77
2023/08/25 01:04:11;;;;;;;25.50;9.47;;;;;;;23.04;68.97;100353.01;124059;1105;104252;-75
2023/08/25 01:06:42;;;;;;;20.53;8.43;;;;;;;22.96;69.04;100356.70;124026;1105;104221;-75
2023/08/25 01:09:14;;;;;;;16.57;8.33;;;;;;;22.94;68.98;100357.66;124003;1105;104185;-76
2023/08/25 01:11:55;;;;;;;19.73;8.87;;;;;;;22.92;69.21;100363.03;123986;1104;104230;-76
2023/08/25 01:14:43;;;;;;;19.50;8.93;;;;;;;22.91;68.77;100371.95;124908;1105;102359;-76
2023/08/25 01:17:22;;;;;;;20.03;8.57;;;;;;;22.86;69.44;100365.81;124110;1105;104213;-76
2023/08/25 01:20:00;;;;;;;18.73;8.30;;;;;;;22.83;69.22;100370.30;124096;1105;104367;-76
2023/08/25 01:22:53;;;;;;;19.60;8.40;;;;;;;22.81;69.38;100375.69;124155;1105;101961;-76
2023/08/25 01:25:27;;;;;;;17.55;8.23;;;;;;;22.75;69.44;100368.66;124187;1105;102299;-77
2023/08/25 01:27:59;;;;;;;18.63;8.77;;;;;;;22.74;69.52;100364.21;124137;1105;104258;-77
2023/08/25 01:30:34;;;;;;;22.70;8.70;;;;;;;22.78;69.44;100373.06;124078;1105;104233;-76
2023/08/25 01:33:10;;;;;;;20.23;8.80;;;;;;;22.88;69.75;100368.45;123904;1105;104676;-76
2023/08/25 01:35:58;;;;;;;17.90;8.40;;;;;;;22.97;69.19;100369.17;124054;1105;104176;-76
2023/08/25 01:38:36;;;;;;;15.63;7.63;;;;;;;23.03;69.24;100368.19;124074;1105;104226;-77
2023/08/25 01:41:12;;;;;;;17.70;8.50;;;;;;;23.06;69.42;100357.44;124098;1106;104185;-75
2023/08/25 01:43:48;;;;;;;17.27;8.90;;;;;;;23.12;69.34;100351.10;124110;1105;102046;-76
2023/08/25 01:46:21;;;;;;;19.20;8.37;;;;;;;23.14;69.11;100357.33;124057;1105;102239;-76
2023/08/25 01:48:54;;;;;;;21.37;8.97;;;;;;;23.10;68.63;100343.10;123978;1105;104191;-76
2023/08/25 01:51:26;;;;;;;14.83;7.75;;;;;;;23.13;68.66;100339.50;124019;1105;104233;-75
2023/08/25 01:53:58;;;;;;;16.23;7.73;;;;;;;23.16;68.59;100336.77;124009;1105;111774;-75
2023/08/25 01:56:29;;;;;;;16.20;7.20;;;;;;;23.15;68.72;100340.34;124079;1105;103670;-76
2023/08/25 01:59:01;;;;;;;15.23;7.70;;;;;;;23.12;68.63;100337.72;124002;1105;104261;-76
2023/08/25 02:01:34;;;;;;;18.03;7.70;;;;;;;23.11;68.32;100339.52;123953;1105;104399;-76
2023/08/25 02:04:07;;;;;;;17.00;8.27;;;;;;;23.08;68.04;100336.00;124005;1104;104223;-76
2023/08/25 02:06:39;;;;;;;16.40;7.73;;;;;;;23.01;68.14;100337.02;124000;1105;104258;-76
2023/08/25 02:09:10;;;;;;;17.93;8.20;;;;;;;22.96;68.52;100339.77;124064;1105;101833;-75
2023/08/25 02:11:42;;;;;;;17.17;8.13;;;;;;;22.90;68.08;100338.08;124000;1105;101971;-75
2023/08/25 02:14:22;;;;;;;17.40;8.43;;;;;;;22.85;68.34;100341.77;124013;1105;107458;-75
2023/08/25 02:16:54;;;;;;;17.13;7.87;;;;;;;22.83;68.30;100344.46;124018;1105;104243;-75
2023/08/25 02:19:25;;;;;;;20.07;7.80;;;;;;;22.81;68.48;100338.23;124013;1105;104251;-75
2023/08/25 02:21:58;;;;;;;21.40;7.87;;;;;;;22.80;68.58;100336.48;123985;1105;104265;-76
2023/08/25 02:24:30;;;;;;;18.70;8.10;;;;;;;22.81;68.15;100338.23;124032;1104;104249;-75
2023/08/25 02:27:02;;;;;;;14.77;7.70;;;;;;;22.86;68.14;100335.48;124105;1105;101941;-75
2023/08/25 02:29:33;;;;;;;15.60;7.50;;;;;;;22.92;68.52;100335.37;123996;1105;104354;-75
2023/08/25 02:32:04;;;;;;;17.40;8.40;;;;;;;22.85;68.31;100336.41;124000;1105;104377;-75
2023/08/25 02:34:36;;;;;;;19.57;7.83;;;;;;;22.82;68.44;100342.69;125040;1104;104265;-75
2023/08/25 02:37:08;;;;;;;23.20;8.17;;;;;;;22.86;67.80;100341.73;123991;1105;104172;-76
2023/08/25 02:39:39;;;;;;;16.57;7.50;;;;;;;22.90;68.22;100338.08;124036;1105;104364;-75
2023/08/25 02:42:10;;;;;;;17.30;7.63;;;;;;;22.87;67.30;100343.48;123983;1105;104258;-75
2023/08/25 02:44:42;;;;;;;18.60;8.67;;;;;;;22.83;67.61;100339.11;123964;1105;102052;-75
2023/08/25 02:47:13;;;;;;;18.10;7.77;;;;;;;22.79;67.70;100334.71;125073;1105;101826;-76
2023/08/25 02:49:46;;;;;;;18.57;9.23;;;;;;;22.73;68.17;100337.49;124988;1105;101984;-76
2023/08/25 02:52:17;;;;;;;21.40;9.10;;;;;;;22.67;68.70;100326.90;124102;1105;104390;-76
2023/08/25 02:54:48;;;;;;;17.57;8.90;;;;;;;22.63;68.69;100330.55;124160;1105;104198;-76
2023/08/25 02:57:21;;;;;;;18.60;8.80;;;;;;;22.65;68.79;100334.95;124030;1106;104254;-76
2023/08/25 02:59:52;;;;;;;19.80;8.40;;;;;;;22.68;68.53;100336.70;124039;1105;104329;-76
2023/08/25 03:02:23;;;;;;;17.63;8.40;;;;;;;22.64;68.68;100330.53;124003;1105;104302;-76
2023/08/25 03:04:55;;;;;;;20.77;8.53;;;;;;;22.66;68.49;100327.80;123927;1105;104179;-75
2023/08/25 03:07:28;;;;;;;19.00;8.13;;;;;;;22.69;68.85;100330.42;124033;1105;104330;-76
2023/08/25 03:10:00;;;;;;;17.13;8.43;;;;;;;22.73;68.28;100332.14;124034;1106;104185;-76
2023/08/25 03:12:31;;;;;;;18.40;8.00;;;;;;;22.74;68.60;100334.79;124153;1105;104312;-76
2023/08/25 03:15:03;;;;;;;19.57;8.60;;;;;;;22.75;68.62;100338.34;124089;1105;102316;-76
2023/08/25 03:17:34;;;;;;;17.40;8.27;;;;;;;22.74;68.56;100336.59;124046;1105;104300;-76
2023/08/25 03:20:08;;;;;;;18.20;8.37;;;;;;;22.71;68.79;100342.00;124016;1105;104261;-76
2023/08/25 03:22:39;;;;;;;18.17;9.10;;;;;;;22.66;68.61;100339.39;124164;1105;102260;-76
2023/08/25 03:25:11;;;;;;;28.73;9.27;;;;;;;22.63;68.52;100343.92;124128;1105;104254;-77
2023/08/25 03:27:43;;;;;;;31.57;9.83;;;;;;;22.62;68.34;100348.36;124191;1105;101984;-77
2023/08/25 03:37:58;;;;;;;38.70;11.30;;;;;;;22.46;68.27;100382.49;123992;1106;106164;-77
2023/08/25 03:51:05;;;;;;;24.53;10.10;;;;;;;22.28;68.84;100404.98;124324;1102;104262;-77
2023/08/25 03:53:37;;;;;;;20.57;8.90;;;;;;;22.21;68.64;100411.34;124165;1102;102160;-76
2023/08/25 03:56:08;;;;;;;20.63;8.90;;;;;;;22.16;69.02;100414.07;124209;1105;104226;-76
2023/08/25 03:58:39;;;;;;;23.10;9.07;;;;;;;22.15;69.35;100422.98;124406;1105;102174;-76
2023/08/25 04:01:12;;;;;;;23.13;9.40;;;;;;;22.15;68.80;100427.45;124206;1105;101842;-76
2023/08/25 04:03:44;;;;;;;15.57;8.30;;;;;;;22.16;68.95;100429.20;124074;1105;104224;-73
2023/08/25 04:06:15;;;;;;;21.45;8.80;;;;;;;22.15;69.27;100432.80;124092;1105;104321;-74
2023/08/25 04:08:48;;;;;;;18.33;8.77;;;;;;;22.12;69.35;100438.18;124264;1105;104252;-74
2023/08/25 04:11:19;;;;;;;22.77;8.10;;;;;;;22.11;68.39;100431.05;124870;1105;102472;-78
2023/08/25 04:13:51;;;;;;;18.10;8.63;;;;;;;22.12;69.28;100443.52;124607;1105;104377;-76
2023/08/25 04:16:22;;;;;;;20.07;9.27;;;;;;;22.11;68.86;100437.30;124653;1105;104243;-76
2023/08/25 04:18:54;;;;;;;19.90;8.47;;;;;;;22.14;68.44;100447.05;124411;1105;102043;-76
2023/08/25 04:21:25;;;;;;;21.20;8.90;;;;;;;22.20;68.82;100437.16;125399;1105;104319;-76
2023/08/25 04:23:56;;;;;;;21.17;8.10;;;;;;;22.28;68.87;100445.07;124648;1105;102076;-76
2023/08/25 04:26:28;;;;;;;19.20;8.80;;;;;;;22.31;68.46;100442.39;124456;1105;104223;-76
2023/08/25 04:28:59;;;;;;;17.87;8.37;;;;;;;22.31;68.42;100442.39;124809;1105;104214;-76
2023/08/25 04:31:31;;;;;;;17.83;8.33;;;;;;;22.34;68.76;100438.80;125156;1105;102080;-76
2023/08/25 04:34:05;;;;;;;21.63;8.73;;;;;;;22.35;68.24;100449.48;125880;1105;101905;-77
2023/08/25 04:36:39;;;;;;;22.10;8.50;;;;;;;22.39;68.12;100451.22;124959;1105;104275;-76
2023/08/25 04:39:11;;;;;;;18.53;8.83;;;;;;;22.41;68.54;100460.09;124589;1105;102025;-76
2023/08/25 04:41:43;;;;;;;16.63;7.77;;;;;;;22.43;67.58;100470.76;124768;1105;102164;-77
2023/08/25 04:44:15;;;;;;;21.63;8.63;;;;;;;22.44;68.10;100470.73;125611;1099;104237;-76
2023/08/25 04:46:46;;;;;;;19.30;8.07;;;;;;;22.46;67.50;100475.19;124836;1102;101958;-76
2023/08/25 04:49:18;;;;;;;18.87;7.87;;;;;;;22.49;67.85;100478.70;125079;1102;101941;-77
2023/08/25 04:51:50;;;;;;;20.93;7.40;;;;;;;22.51;67.53;100479.55;125497;1102;102522;-75
2023/08/25 04:54:22;;;;;;;15.47;6.80;;;;;;;22.58;67.37;100483.92;126259;1099;101734;-76
2023/08/25 04:56:57;;;;;;;16.67;7.70;;;;;;;22.67;66.79;100490.03;125112;1099;104226;-75
2023/08/25 04:59:30;;;;;;;19.95;8.20;;;;;;;22.72;67.12;100481.05;124668;1099;104278;-76
2023/08/25 05:02:03;;;;;;;19.23;7.73;;;;;;;22.76;66.57;100479.20;124601;1100;102050;-74
2023/08/25 05:04:37;;;;;;;20.60;7.87;;;;;;;22.79;66.12;100472.00;124437;1100;104194;-75
2023/08/25 05:07:09;;;;;;;16.67;8.27;;;;;;;22.84;66.58;100473.73;126186;1098;102009;-77
2023/08/25 05:09:41;;;;;;;20.57;7.60;;;;;;;22.97;66.52;100478.88;124826;1102;101843;-77
2023/08/25 05:12:13;;;;;;;15.07;6.93;;;;;;;23.07;65.68;100478.73;125228;1102;104334;-78
2023/08/25 05:14:59;;;;;;;18.20;6.90;;;;;;;23.22;65.40;100482.95;125167;1099;102087;-77
2023/08/25 05:17:31;;;;;;;19.53;7.20;;;;;;;23.34;64.94;100485.43;125311;1102;104271;-77
2023/08/25 05:20:06;;;;;;;21.65;8.23;;;;;;;23.42;65.21;100480.84;125536;1102;102048;-77
2023/08/25 05:22:39;;;;;;;20.40;8.30;;;;;;;23.48;65.09;100487.87;124668;1102;102087;-76
2023/08/25 05:25:14;;;;;;;20.90;8.25;;;;;;;23.57;64.55;100476.99;125763;1099;101997;-80
2023/08/25 05:27:50;;;;;;;17.37;7.47;;;;;;;23.69;64.86;100470.53;125413;1102;104267;-76
2023/08/25 05:30:37;;;;;;;18.10;6.93;;;;;;;23.69;64.03;100471.41;125640;1099;104211;-77
2023/08/25 05:33:14;;;;;;;19.60;7.77;;;;;;;23.75;63.90;100474.87;125491;1099;101925;-76
2023/08/25 05:36:03;;;;;;;15.90;6.87;;;;;;;23.83;63.70;100470.27;124670;1098;104791;-75
2023/08/25 05:38:37;;;;;;;17.37;6.77;;;;;;;23.90;62.92;100465.70;125175;1102;101745;-76
2023/08/25 05:41:08;;;;;;;18.00;7.13;;;;;;;23.99;62.73;100465.52;124417;1099;104191;-76
2023/08/25 05:43:47;;;;;;;16.83;7.07;;;;;;;24.02;62.38;100465.45;124694;1102;102080;-76
2023/08/25 05:46:18;;;;;;;18.47;6.70;;;;;;;24.04;61.97;100468.98;125193;1100;102574;-76
2023/08/25 05:48:58;;;;;;;18.13;6.77;;;;;;;24.02;60.71;100474.37;125899;1099;102044;-79
2023/08/25 05:52:07;;;;;;;14.67;6.80;;;;;;;23.98;60.37;100472.69;126106;1093;101515;-79
2023/08/25 05:58:27;;;;;;;20.35;7.10;;;;;;;23.94;58.89;100481.69;125405;1099;102588;-74
2023/08/25 06:01:26;;;;;;;15.65;6.70;;;;;;;23.98;58.64;100480.73;124593;1100;102328;-82
2023/08/25 06:07:58;;;;;;;18.80;6.87;;;;;;;24.12;58.31;100474.18;124819;1099;102091;-77
2023/08/25 06:11:11;;;;;;;;;;;;;;;;;;;;;
2023/08/25 06:14:35;;;;;;;20.73;6.77;;;;;;;24.34;58.27;100472.83;124542;1099;101980;-79
2023/08/25 06:17:48;;;;;;;20.47;6.70;;;;;;;24.48;58.06;100474.30;125199;1099;102073;-78
2023/08/25 06:20:42;;;;;;;18.23;7.63;;;;;;;24.50;57.28;100477.86;124453;1099;101932;-77
2023/08/25 06:23:16;;;;;;;19.27;7.10;;;;;;;24.53;56.92;100475.11;124478;1099;103528;-77
2023/08/25 06:25:51;;;;;;;18.37;7.03;;;;;;;24.63;56.72;100482.05;124262;1102;102424;-77
2023/08/25 06:28:23;;;;;;;15.23;6.83;;;;;;;24.72;56.35;100484.52;124268;1099;102175;-75
2023/08/25 06:34:11;;;;;;;15.17;6.87;;;;;;;25.00;56.15;100475.81;124217;1099;104233;-78
2023/08/25 06:37:15;;;;;;;22.53;6.87;;;;;;;25.09;56.39;100467.54;124624;1099;101877;-78
2023/08/25 06:40:19;;;;;;;19.90;6.83;;;;;;;25.35;55.85;100468.69;124588;1099;104707;-77
2023/08/25 06:42:57;;;;;;;15.73;6.97;;;;;;;25.50;55.52;100467.42;124174;1102;104287;-76
2023/08/25 06:45:30;;;;;;;16.02;6.28;;;;;;;25.61;55.48;100472.51;125671;1100;104242;-79
2023/08/25 06:48:02;;;;;;;25.47;6.80;;;;;;;25.74;55.10;100473.95;124309;1101;104204;-75
2023/08/25 06:54:05;;;;;;;17.70;5.90;;;;;;;25.85;54.77;100465.56;124963;1102;102033;-79
2023/08/25 06:57:07;;;;;;;;;;;;;;;;;;;;;
2023/08/25 06:59:57;;;;;;;17.30;6.07;;;;;;;26.18;53.58;100463.75;124650;1099;102188;-78
2023/08/25 07:02:59;;;;;;;12.57;6.27;;;;;;;26.40;54.40;100459.52;125879;1098;104207;-80
2023/08/25 07:06:06;;;;;;;15.90;6.00;;;;;;;26.58;53.96;100450.01;124447;1099;104190;-78
2023/08/25 07:12:41;;;;;;;13.13;5.57;;;;;;;26.84;53.30;100450.08;124345;1102;104319;-77
2023/08/25 07:15:17;;;;;;;12.37;5.80;;;;;;;26.92;52.41;100443.58;125388;1102;101922;-81
2023/08/25 07:17:51;;;;;;;16.20;6.00;;;;;;;27.01;51.94;100437.89;127174;1098;101648;-79
2023/08/25 07:20:49;;;;;;;20.10;6.00;;;;;;;27.13;52.44;100441.96;125060;1099;104162;-79
2023/08/25 07:23:26;;;;;;;12.77;5.80;;;;;;;27.32;52.05;100439.58;125181;1099;102737;-80
2023/08/25 07:26:25;;;;;;;15.37;5.73;;;;;;;27.43;51.71;100432.86;124175;1102;104198;-81
2023/08/25 07:29:09;;;;;;;18.17;6.73;;;;;;;27.43;50.88;100434.68;125878;1102;104262;-80
2023/08/25 07:32:08;;;;;;;16.30;5.80;;;;;;;27.46;50.80;100439.96;125020;1102;104264;-79
2023/08/25 07:34:46;;;;;;;15.03;5.67;;;;;;;27.62;50.65;100432.20;124834;1102;102320;-78
2023/08/25 07:37:40;;;;;;;;;;;;;;;;;;;;;
2023/08/25 07:40:34;;;;;;;18.80;6.33;;;;;;;28.01;49.31;100442.48;125957;1099;104099;-81
2023/08/25 07:43:17;;;;;;;17.43;6.33;;;;;;;28.12;49.05;100444.77;126289;1098;104269;-80
2023/08/25 07:45:54;;;;;;;18.50;5.70;;;;;;;28.24;48.53;100449.70;125103;1099;104166;-82
2023/08/25 07:48:28;;;;;;;21.53;6.13;;;;;;;28.36;48.57;100440.27;126019;1099;101816;-80
2023/08/25 07:51:07;;;;;;;18.50;6.40;;;;;;;28.53;47.61;100444.09;125444;1100;104159;-82
2023/08/25 07:54:00;;;;;;;18.97;6.80;;;;;;;28.68;47.46;100440.81;125009;1099;104339;-80
2023/08/25 07:56:33;;;;;;;15.80;6.40;;;;;;;28.66;47.01;100440.01;124297;1101;104192;-79
2023/08/25 07:59:21;;;;;;;17.37;5.97;;;;;;;28.74;47.41;100445.96;125186;1099;101973;-80
2023/08/25 08:02:09;;;;;;;21.43;6.40;;;;;;;28.78;47.11;100442.20;126409;1098;101784;-77
2023/08/25 08:05:02;;;;;;;16.77;6.23;;;;;;;28.94;46.45;100445.14;125237;1102;104233;-78
2023/08/25 08:08:28;;;;;;;14.70;5.60;;;;;;;29.13;46.63;100444.37;126078;1099;101993;-82
2023/08/25 08:11:34;;;;;;;11.87;5.77;;;;;;;29.32;46.63;100442.66;125763;1102;101671;-82
2023/08/25 08:14:28;;;;;;;11.10;4.93;;;;;;;29.54;45.47;100452.53;125295;1099;104237;-79
2023/08/25 08:17:13;;;;;;;23.20;6.30;;;;;;;29.53;45.75;100445.36;124805;1100;104216;-81
2023/08/25 08:20:00;;;;;;;17.53;6.00;;;;;;;29.64;45.33;100448.48;125034;1102;103527;-80
2023/08/25 08:26:49;;;;;;;;;;;;;;;;;;;;;
2023/08/25 08:29:24;;;;;;;17.40;6.33;;;;;;;30.33;44.38;100451.70;125786;1099;110222;-82
2023/08/25 08:31:56;;;;;;;13.67;5.90;;;;;;;30.50;44.08;100448.23;125923;1100;101820;-78
2023/08/25 08:34:30;;;;;;;14.40;6.03;;;;;;;30.49;43.24;100447.33;125221;1102;102102;-79
2023/08/25 08:37:11;;;;;;;16.13;5.67;;;;;;;30.58;43.74;100454.14;125160;1102;101799;-80
2023/08/25 08:40:14;;;;;;;13.00;6.13;;;;;;;30.68;43.79;100441.89;124233;1102;101852;-78
2023/08/25 08:43:03;;;;;;;18.50;6.33;;;;;;;30.90;43.53;100451.66;126065;1099;101776;-82
2023/08/25 08:45:58;;;;;;;11.20;5.33;;;;;;;30.84;43.19;100433.91;125143;1098;104178;-80
2023/08/25 08:48:34;;;;;;;13.30;5.80;;;;;;;30.90;43.03;100438.13;125531;1102;104205;-79
2023/08/25 08:51:56;;;;;;;;;;;;;;;;;;;;;
2023/08/25 08:55:00;;;;;;;13.43;5.63;;;;;;;31.08;42.68;100426.39;125122;1102;102037;-80
2023/08/25 08:57:40;;;;;;;12.80;5.73;;;;;;;31.27;42.58;100430.86;125085;1102;102152;-82
2023/08/25 09:00:56;;;;;;;17.20;5.80;;;;;;;31.26;41.43;100419.16;124543;1099;104169;-82
2023/08/25 09:03:57;;;;;;;15.70;5.60;;;;;;;31.15;41.60;100418.81;126233;1098;104229;-80
2023/08/25 09:10:32;;;;;;;;;;;;;;;;;;;;;
2023/08/25 09:13:30;;;;;;;16.83;5.57;;;;;;;31.07;41.33;100404.79;126330;1101;103791;-85
2023/08/25 09:16:35;;;;;;;;;;;;;;;;;;;;;
2023/08/25 09:23:15;;;;;;;12.20;5.60;;;;;;;31.59;40.97;100391.25;126441;1099;104149;-85
2023/08/25 09:26:19;;;;;;;12.40;5.83;;;;;;;31.71;40.54;100389.69;125352;1102;101942;-84
2023/08/25 09:29:23;;;;;;;11.67;5.67;;;;;;;31.81;40.13;100390.95;125000;1102;101895;-81
2023/08/25 09:32:19;;;;;;;11.03;5.60;;;;;;;31.74;39.76;100386.80;125044;1105;102188;-80
2023/08/25 09:35:42;;;;;;;14.13;5.40;;;;;;;31.67;39.82;100375.42;125111;1106;102291;-84
2023/08/25 09:38:24;;;;;;;;;;;;;;;31.49;40.20;100374.57;125164;1102;104214;-82
2023/08/25 09:45:15;;;;;;;9.33;5.43;;;;;;;31.58;38.80;100377.77;125612;1102;102328;-80
2023/08/25 09:47:51;;;;;;;11.27;5.37;;;;;;;31.52;39.36;100374.41;125744;1102;104168;-81
2023/08/25 09:50:54;;;;;;;11.00;5.37;;;;;;;31.77;39.35;100372.21;125110;1099;101909;-82
2023/08/25 09:53:26;;;;;;;11.40;5.37;;;;;;;32.00;38.50;100370.94;126012;1102;101957;-82
2023/08/25 09:56:04;;;;;;;10.15;5.20;;;;;;;32.18;38.56;100367.23;126196;1100;102346;-83
2023/08/25 09:58:40;;;;;;;8.55;5.25;;;;;;;32.30;38.16;100359.34;127038;1100;101803;-86
2023/08/25 10:01:12;;;;;;;17.07;5.30;;;;;;;32.41;38.17;100367.73;126820;1100;104310;-79
2023/08/25 10:03:49;;;;;;;10.40;5.00;;;;;;;32.31;37.88;100366.53;125953;1101;101916;-77
2023/08/25 10:06:26;;;;;;;9.53;5.20;;;;;;;32.24;37.72;100358.73;124876;1102;102387;-83
2023/08/25 10:09:00;;;;;;;11.37;5.17;;;;;;;32.26;37.88;100364.08;124853;1102;101844;-80
2023/08/25 10:11:41;;;;;;;14.00;5.60;;;;;;;32.35;37.56;100362.66;125341;1101;102063;-80
2023/08/25 10:14:16;;;;;;;11.10;5.27;;;;;;;32.50;37.62;100361.77;124819;1102;102229;-79
2023/08/25 10:16:55;;;;;;;11.27;5.97;;;;;;;32.56;37.68;100361.41;125259;1102;101908;-81
2023/08/25 10:19:40;;;;;;;;;;;;;;;;;;;;;
2023/08/25 10:22:36;;;;;;;11.43;5.17;;;;;;;32.31;37.25;100367.39;125665;1102;104101;-84
2023/08/25 10:25:21;;;;;;;9.37;5.57;;;;;;;32.36;37.47;100357.14;126427;1100;102129;-81
2023/08/25 10:28:18;;;;;;;9.57;5.10;;;;;;;32.53;37.09;100364.30;126270;1100;104271;-83
2023/08/25 10:31:08;;;;;;;11.23;5.63;;;;;;;32.59;37.13;100355.80;126346;1100;101993;-79
2023/08/25 10:33:52;;;;;;;13.40;5.47;;;;;;;32.58;36.77;100342.31;125397;1099;104243;-80
2023/08/25 10:40:13;;;;;;;;;;;;;;;;;;;;;
2023/08/25 10:43:23;;;;;;;10.72;5.30;;;;;;;32.65;37.02;100349.18;125885;1101;101771;-80
2023/08/25 10:46:14;;;;;;;9.47;5.50;;;;;;;32.70;37.18;100347.05;125462;1102;102087;-80
2023/08/25 10:48:52;;;;;;;12.87;7.57;;;;;;;32.66;36.94;100340.04;126148;1100;102218;-80
2023/08/25 10:51:36;;;;;;;10.90;5.63;;;;;;;32.42;37.25;100350.48;124428;1102;102023;-80
2023/08/25 10:54:16;;;;;;;;;;;;;;;32.33;37.24;100342.88;125026;1099;102096;-79
2023/08/25 10:57:08;;;;;;;14.28;6.35;;;;;;;32.02;37.03;100331.02;115707;1099;10001211;-79
2023/08/25 11:00:22;;;;;;;14.23;5.20;;;;;;;32.08;37.15;100338.81;125211;1102;104182;-82
2023/08/25 11:03:02;;;;;;;10.93;5.33;;;;;;;32.22;37.03;100338.92;125314;1102;104271;-80
2023/08/25 11:06:02;;;;;;;10.00;5.27;;;;;;;32.32;37.17;100335.69;125153;1102;104261;-79
2023/08/25 11:08:47;;;;;;;11.07;5.30;;;;;;;32.46;37.09;100338.50;125648;1101;102070;-85
2023/08/25 11:11:34;;;;;;;;;;;;;;;;;;;;;
2023/08/25 11:14:12;;;;;;;10.00;5.50;;;;;;;32.41;36.85;100327.01;125520;1099;104210;-78
2023/08/25 11:16:53;;;;;;;13.37;6.00;;;;;;;32.44;37.01;100318.68;125932;1100;104181;-80
2023/08/25 11:20:04;;;;;;;10.47;5.80;;;;;;;32.55;36.85;100310.80;126380;1100;104070;-85
2023/08/25 11:23:04;;;;;;;11.30;5.63;;;;;;;32.73;37.07;100307.98;125217;1099;104268;-80
2023/08/25 11:28:42;;;;;;;13.37;6.20;;;;;;;32.59;36.73;100289.75;125163;1099;102208;-79
2023/08/25 11:31:28;;;;;;;12.60;5.65;;;;;;;32.55;36.70;100297.22;126277;1101;102346;-82
2023/08/25 11:34:08;;;;;;;10.60;5.60;;;;;;;32.63;36.71;100287.72;125465;1102;102147;-84
2023/08/25 11:36:40;;;;;;;11.50;5.50;;;;;;;32.65;36.48;100291.27;126261;1101;101909;-83
2023/08/25 11:39:23;;;;;;;11.90;5.35;;;;;;;32.72;36.63;100281.77;124689;1102;102087;-85
2023/08/25 11:45:31;;;;;;;;;;;;;;;;;;;;;
2023/08/25 11:48:37;;;;;;;10.13;5.57;;;;;;;32.85;36.36;100271.02;125536;1102;104101;-81
2023/08/25 11:51:21;;;;;;;14.33;5.57;;;;;;;32.84;36.38;100281.03;125040;1102;104217;-85
2023/08/25 11:54:02;;;;;;;9.57;5.40;;;;;;;32.78;36.18;100270.53;125217;1102;104342;-81
2023/08/25 11:56:40;;;;;;;11.23;5.70;;;;;;;32.81;36.38;100270.34;126254;1100;101770;-82
2023/08/25 11:59:37;;;;;;;13.83;5.77;;;;;;;32.89;36.37;100265.31;125698;1102;104216;-84
2023/08/25 12:02:33;;;;;;;12.43;5.70;;;;;;;32.88;36.31;100258.15;125851;1102;102073;-80
2023/08/25 12:05:38;;;;;;;;;;;;;;;;;;;;;
2023/08/25 12:08:29;;;;;;;14.77;6.23;;;;;;;32.73;35.84;100251.80;125621;1102;101995;-82
2023/08/25 12:11:07;;;;;;;12.70;6.07;;;;;;;32.79;36.15;100245.13;125712;1102;104329;-79
2023/08/25 12:13:44;;;;;;;12.93;5.80;;;;;;;32.94;36.10;100254.16;125297;1099;104171;-81
2023/08/25 12:16:19;;;;;;;9.93;5.83;;;;;;;33.04;36.04;100244.48;125248;1100;101928;-83
2023/08/25 12:18:57;;;;;;;14.90;6.17;;;;;;;33.03;36.02;100241.85;124792;1099;104166;-81
2023/08/25 12:21:38;;;;;;;10.90;5.30;;;;;;;33.06;35.87;100247.09;126011;1102;104620;-84
2023/08/25 12:24:15;;;;;;;8.73;5.43;;;;;;;32.98;35.78;100241.27;125866;1102;101618;-79
2023/08/25 12:27:06;;;;;;;;;;;;;;;;;;;;;
2023/08/25 12:29:50;;;;;;;10.63;5.80;;;;;;;32.93;35.69;100245.14;125498;1099;104284;-81
2023/08/25 12:32:30;;;;;;;11.40;5.70;;;;;;;32.96;35.66;100244.09;125464;1102;102192;-80
2023/08/25 12:35:08;;;;;;;12.03;6.33;;;;;;;33.00;35.89;100240.19;125610;1102;104105;-80
2023/08/25 12:38:12;;;;;;;14.50;5.70;;;;;;;33.13;35.97;100240.32;125073;1102;102121;-82
2023/08/25 12:41:06;;;;;;;11.20;5.80;;;;;;;33.32;35.82;100240.05;125520;1102;104188;-82
2023/08/25 12:43:43;;;;;;;14.20;5.70;;;;;;;33.39;35.27;100235.09;125579;1101;101923;-85
2023/08/25 12:46:16;;;;;;;12.50;5.57;;;;;;;33.35;35.63;100233.53;125975;1102;104234;-81
2023/08/25 12:48:59;;;;;;;14.23;5.80;;;;;;;33.29;35.50;100229.38;125750;1099;104217;-79
2023/08/25 12:51:57;;;;;;;9.03;5.97;;;;;;;33.32;35.26;100234.62;125362;1099;104172;-79
2023/08/25 12:55:14;;;;;;;9.30;5.60;;;;;;;33.34;35.45;100240.82;125745;1099;101852;-77
2023/08/25 12:58:03;;;;;;;11.60;5.27;;;;;;;33.30;35.27;100241.98;124674;1102;101829;-81
2023/08/25 13:00:58;;;;;;;9.87;5.23;;;;;;;33.31;35.08;100233.72;126275;1102;102089;-82
2023/08/25 13:03:39;;;;;;;11.23;5.87;;;;;;;33.28;35.33;100247.52;125745;1102;104156;-80
2023/08/25 13:06:22;;;;;;;9.87;5.70;;;;;;;33.13;35.12;100232.16;125934;1102;101806;-79
2023/08/25 13:09:16;;;;;;;11.20;5.35;;;;;;;32.94;35.25;100230.59;124669;1099;104213;-77
2023/08/25 13:11:54;;;;;;;10.70;5.80;;;;;;;32.88;35.31;100225.54;124865;1102;102035;-77
2023/08/25 13:14:46;;;;;;;9.10;5.63;;;;;;;32.86;35.08;100232.03;125781;1099;104114;-83
2023/08/25 13:17:32;;;;;;;11.70;5.77;;;;;;;32.78;35.39;100227.93;125251;1102;102072;-83
2023/08/25 13:20:48;;;;;;;;;;;;;;;;;;;;;
2023/08/25 13:23:35;;;;;;;15.73;5.87;;;;;;;32.70;35.32;100222.10;126280;1100;101874;-85
2023/08/25 13:26:35;;;;;;;9.93;5.27;;;;;;;32.70;35.29;100216.67;125364;1099;104169;-83
2023/08/25 13:29:56;;;;;;;13.60;6.10;;;;;;;32.81;35.43;100218.73;125724;1101;118949;-84